Time;durP1;ratioP1;P1;durP2;ratioP2;P2;SDS_P1;SDS_P2;PMS_P1;PMS_P2;Temp;Humidity;BMP_temperature;BMP_pressure;BME280_temperature;BME280_humidity;BME280_pressure;Samples;Min_cycle;Max_cycle;Signal;HPM_P1;HPM_P2
2023/03/09 00:01:53;;;;;;;9.30;4.68;;;;;;;;;;6299650;28;20098;-78
2023/03/09 00:04:56;;;;;;;8.20;5.13;;;;;;;;;;6302187;28;20044;-80
2023/03/09 00:07:58;;;;;;;8.15;4.90;;;;;;;;;;6300541;28;20052;-76
2023/03/09 00:11:00;;;;;;;10.88;5.57;;;;;;;;;;6298464;28;20067;-76
2023/03/09 00:14:01;;;;;;;9.25;5.47;;;;;;;;;;6300939;28;20044;-77
2023/03/09 00:17:03;;;;;;;10.57;5.22;;;;;;;;;;6299581;28;20060;-75
2023/03/09 00:20:16;;;;;;;8.38;4.82;;;;;;;;;;6303185;28;20210;-78
2023/03/09 00:23:19;;;;;;;7.85;4.32;;;;;;;;;;6298314;28;20052;-70
2023/03/09 00:26:20;;;;;;;11.40;6.00;;;;;;;;;;6301325;28;20045;-74
2023/03/09 00:29:25;;;;;;;10.05;5.35;;;;;;;;;;6301290;28;20052;-77
2023/03/09 00:32:27;;;;;;;12.68;6.32;;;;;;;;;;6298067;28;20049;-72
2023/03/09 00:35:30;;;;;;;15.18;5.75;;;;;;;;;;6301775;28;20048;-75
2023/03/09 00:38:31;;;;;;;8.50;5.55;;;;;;;;;;6299595;28;20041;-75
2023/03/09 00:41:34;;;;;;;11.35;5.65;;;;;;;;;;6298240;28;20060;-76
2023/03/09 00:44:35;;;;;;;9.40;5.28;;;;;;;;;;6297269;28;20048;-72
2023/03/09 00:47:37;;;;;;;10.13;6.53;;;;;;;;;;6300540;28;20268;-75
2023/03/09 00:50:40;;;;;;;58.90;38.40;;;;;;;;;;6298815;28;20052;-75
2023/03/09 00:53:42;;;;;;;107.05;56.70;;;;;;;;;;6297291;28;20082;-79
2023/03/09 00:56:43;;;;;;;26.13;14.65;;;;;;;;;;6297044;28;20048;-71
2023/03/09 00:59:45;;;;;;;16.92;8.55;;;;;;;;;;6298417;28;20105;-75
2023/03/09 01:02:47;;;;;;;12.82;7.18;;;;;;;;;;6299089;28;20361;-75
2023/03/09 01:05:50;;;;;;;12.02;6.88;;;;;;;;;;6297821;28;20119;-76
2023/03/09 01:08:52;;;;;;;12.52;7.60;;;;;;;;;;6301395;28;20052;-74
2023/03/09 01:11:54;;;;;;;13.45;6.82;;;;;;;;;;6298437;28;20048;-75
2023/03/09 01:14:56;;;;;;;12.00;6.75;;;;;;;;;;6300076;28;20076;-71
2023/03/09 01:17:58;;;;;;;10.43;6.10;;;;;;;;;;6296829;28;20048;-76
2023/03/09 01:21:01;;;;;;;14.00;7.00;;;;;;;;;;6300028;28;20044;-73
2023/03/09 01:24:03;;;;;;;12.32;6.65;;;;;;;;;;6299000;28;20048;-76
2023/03/09 01:27:05;;;;;;;11.18;7.07;;;;;;;;;;6297631;28;20057;-75
2023/03/09 01:30:08;;;;;;;12.02;7.40;;;;;;;;;;6298409;28;20917;-76
2023/03/09 01:33:10;;;;;;;12.55;7.80;;;;;;;;;;6298606;28;20051;-75
2023/03/09 01:36:16;;;;;;;12.75;7.70;;;;;;;;;;6299060;28;20127;-75
2023/03/09 01:39:18;;;;;;;14.55;7.40;;;;;;;;;;6299844;28;20170;-75
2023/03/09 01:42:19;;;;;;;11.45;7.00;;;;;;;;;;6290898;28;20053;-75
2023/03/09 01:45:58;;;;;;;11.32;6.80;;;;;;;;;;6298947;28;20283;-73
2023/03/09 01:49:05;;;;;;;10.88;6.30;;;;;;;;;;6299097;28;20040;-75
2023/03/09 01:52:13;;;;;;;12.40;7.25;;;;;;;;;;6298924;28;20060;-75
2023/03/09 01:55:17;;;;;;;12.68;7.03;;;;;;;;;;6299026;28;20044;-75
2023/03/09 01:58:22;;;;;;;12.50;6.95;;;;;;;;;;6298529;28;20062;-74
2023/03/09 02:01:24;;;;;;;11.63;6.38;;;;;;;;;;6298079;28;20137;-75
2023/03/09 02:04:31;;;;;;;12.27;7.35;;;;;;;;;;6298896;28;20052;-76
2023/03/09 02:07:36;;;;;;;15.57;6.43;;;;;;;;;;6297467;28;20340;-74
2023/03/09 02:10:43;;;;;;;11.30;6.50;;;;;;;;;;6297310;28;20048;-74
2023/03/09 02:13:47;;;;;;;13.43;5.97;;;;;;;;;;6299307;28;20072;-75
2023/03/09 02:16:49;;;;;;;10.43;5.78;;;;;;;;;;6299870;28;20063;-75
2023/03/09 02:19:59;;;;;;;10.10;5.93;;;;;;;;;;6298866;28;20052;-75
2023/03/09 02:23:03;;;;;;;9.98;5.85;;;;;;;;;;6302606;28;20048;-75
2023/03/09 02:26:10;;;;;;;11.75;5.80;;;;;;;;;;6302426;28;20054;-75
2023/03/09 02:29:14;;;;;;;9.15;6.13;;;;;;;;;;6305370;28;20048;-76
2023/03/09 02:32:15;;;;;;;;;;;;;;;;;;6300978;28;20722;-76
2023/03/09 02:35:17;;;;;;;9.00;5.75;;;;;;;;;;6302779;28;19954;-75
2023/03/09 02:38:19;;;;;;;11.07;6.53;;;;;;;;;;6300492;28;20048;-76
2023/03/09 02:41:21;;;;;;;11.00;6.30;;;;;;;;;;6300823;28;20118;-75
2023/03/09 02:44:24;;;;;;;12.40;6.45;;;;;;;;;;6304399;28;20120;-76
2023/03/09 02:47:26;;;;;;;10.48;6.25;;;;;;;;;;6299162;28;20098;-76
2023/03/09 02:50:28;;;;;;;11.93;6.38;;;;;;;;;;6297874;28;20106;-75
2023/03/09 02:53:30;;;;;;;12.05;6.90;;;;;;;;;;6300579;28;20093;-76
2023/03/09 02:56:31;;;;;;;12.63;7.18;;;;;;;;;;6299268;28;20047;-75
2023/03/09 02:59:34;;;;;;;12.85;7.63;;;;;;;;;;6295737;28;20059;-74
2023/03/09 03:02:36;;;;;;;12.25;7.18;;;;;;;;;;6296244;28;20233;-75
2023/03/09 03:05:38;;;;;;;13.77;8.00;;;;;;;;;;6295394;28;20109;-75
2023/03/09 03:08:40;;;;;;;13.82;8.70;;;;;;;;;;6294529;28;20122;-76
2023/03/09 03:11:41;;;;;;;14.30;8.88;;;;;;;;;;6298272;28;20291;-76
2023/03/09 03:14:44;;;;;;;12.93;8.90;;;;;;;;;;6298104;28;20088;-76
2023/03/09 03:17:46;;;;;;;11.60;8.52;;;;;;;;;;6291035;28;20113;-71
2023/03/09 03:20:49;;;;;;;11.80;7.97;;;;;;;;;;6299316;28;20236;-75
2023/03/09 03:23:50;;;;;;;13.13;8.48;;;;;;;;;;6298919;28;20236;-75
2023/03/09 03:26:52;;;;;;;14.18;8.85;;;;;;;;;;6296373;28;20056;-72
2023/03/09 03:29:55;;;;;;;13.55;8.45;;;;;;;;;;6300804;28;20057;-75
2023/03/09 03:32:57;;;;;;;14.65;7.95;;;;;;;;;;6301963;28;20048;-75
2023/03/09 03:35:58;;;;;;;15.32;8.52;;;;;;;;;;6299248;28;20052;-74
2023/03/09 03:39:00;;;;;;;14.35;9.00;;;;;;;;;;6302944;28;20052;-76
2023/03/09 03:42:02;;;;;;;14.07;8.02;;;;;;;;;;6298685;28;20052;-75
2023/03/09 03:45:06;;;;;;;14.43;9.00;;;;;;;;;;6301288;28;20112;-75
2023/03/09 03:48:08;;;;;;;18.52;8.68;;;;;;;;;;6303450;28;20053;-73
2023/03/09 03:51:09;;;;;;;13.30;8.55;;;;;;;;;;6301015;28;20063;-76
2023/03/09 03:54:11;;;;;;;15.07;9.25;;;;;;;;;;6304201;28;20094;-75
2023/03/09 03:57:13;;;;;;;13.82;9.27;;;;;;;;;;6302563;28;20303;-76
2023/03/09 04:00:19;;;;;;;14.63;8.70;;;;;;;;;;6299591;28;20225;-75
2023/03/09 04:03:20;;;;;;;15.07;9.57;;;;;;;;;;6299979;28;20059;-75
2023/03/09 04:06:22;;;;;;;13.68;8.52;;;;;;;;;;6300323;28;20218;-73
2023/03/09 04:09:24;;;;;;;15.23;9.05;;;;;;;;;;6301104;28;20044;-75
2023/03/09 04:12:26;;;;;;;17.95;9.13;;;;;;;;;;6299781;28;20055;-76
2023/03/09 04:15:31;;;;;;;21.48;10.13;;;;;;;;;;6299663;28;20083;-75
2023/03/09 04:18:32;;;;;;;18.23;9.93;;;;;;;;;;6303479;28;20063;-76
2023/03/09 04:21:34;;;;;;;16.85;10.40;;;;;;;;;;6306921;28;20116;-76
2023/03/09 04:24:35;;;;;;;15.00;9.25;;;;;;;;;;6307944;28;20332;-76
2023/03/09 04:27:37;;;;;;;16.23;9.55;;;;;;;;;;6305310;28;20044;-75
2023/03/09 04:30:40;;;;;;;15.75;9.35;;;;;;;;;;6303266;28;20111;-75
2023/03/09 04:33:42;;;;;;;19.20;11.05;;;;;;;;;;6298859;28;20067;-75
2023/03/09 04:36:44;;;;;;;15.75;9.93;;;;;;;;;;6298589;28;20064;-74
2023/03/09 04:39:46;;;;;;;15.75;10.40;;;;;;;;;;6299641;28;20493;-75
2023/03/09 04:42:48;;;;;;;17.77;11.30;;;;;;;;;;6298365;28;20059;-75
2023/03/09 04:45:51;;;;;;;19.52;11.95;;;;;;;;;;6301681;28;20056;-75
2023/03/09 04:48:52;;;;;;;17.75;11.30;;;;;;;;;;6300648;28;20064;-75
2023/03/09 04:51:54;;;;;;;21.65;12.38;;;;;;;;;;6299216;28;20052;-76
2023/03/09 04:54:55;;;;;;;20.17;12.55;;;;;;;;;;6300351;28;20145;-75
2023/03/09 04:57:57;;;;;;;19.25;11.82;;;;;;;;;;6299612;28;20056;-75
2023/03/09 05:01:01;;;;;;;17.17;11.77;;;;;;;;;;6298571;28;20048;-73
2023/03/09 05:04:03;;;;;;;17.67;11.00;;;;;;;;;;6300252;28;20112;-71
2023/03/09 05:07:04;;;;;;;18.08;11.13;;;;;;;;;;6301359;28;20082;-75
2023/03/09 05:10:07;;;;;;;20.08;10.93;;;;;;;;;;6296863;28;20044;-75
2023/03/09 05:13:09;;;;;;;19.25;11.23;;;;;;;;;;6299821;28;20056;-75
2023/03/09 05:16:12;;;;;;;17.05;10.95;;;;;;;;;;6294898;28;20101;-75
2023/03/09 05:19:19;;;;;;;15.75;10.88;;;;;;;;;;6312511;28;20098;-75
2023/03/09 05:22:21;;;;;;;20.33;11.43;;;;;;;;;;6297116;28;20228;-75
2023/03/09 05:25:23;;;;;;;20.38;12.80;;;;;;;;;;6301741;28;20098;-75
2023/03/09 05:28:25;;;;;;;25.00;12.85;;;;;;;;;;6302501;28;20053;-75
2023/03/09 05:31:28;;;;;;;20.77;12.80;;;;;;;;;;6297518;28;20110;-75
2023/03/09 05:34:30;;;;;;;17.42;11.45;;;;;;;;;;6298867;28;20074;-75
2023/03/09 05:37:33;;;;;;;22.48;11.88;;;;;;;;;;6299323;28;20087;-76
2023/03/09 05:40:35;;;;;;;23.92;13.23;;;;;;;;;;6296591;28;20047;-76
2023/03/09 05:43:41;;;;;;;21.00;12.45;;;;;;;;;;6297105;28;20068;-76
2023/03/09 05:46:45;;;;;;;19.92;12.13;;;;;;;;;;6297860;28;20332;-72
2023/03/09 05:49:49;;;;;;;21.23;12.18;;;;;;;;;;6299685;28;20056;-75
2023/03/09 05:52:50;;;;;;;;;;;;;;;;;;6298386;28;20060;-75
2023/03/09 05:55:52;;;;;;;18.05;11.68;;;;;;;;;;6297924;28;20273;-75
2023/03/09 05:58:56;;;;;;;19.20;11.88;;;;;;;;;;6299696;28;20057;-75
2023/03/09 06:01:59;;;;;;;19.55;12.77;;;;;;;;;;6295508;28;20338;-75
2023/03/09 06:05:01;;;;;;;21.33;14.30;;;;;;;;;;6293227;28;20045;-76
2023/03/09 06:08:02;;;;;;;24.40;14.85;;;;;;;;;;6295141;28;20053;-78
2023/03/09 06:11:04;;;;;;;18.20;12.10;;;;;;;;;;6297830;28;20056;-73
2023/03/09 06:14:06;;;;;;;21.25;12.90;;;;;;;;;;6297926;28;20748;-71
2023/03/09 06:17:09;;;;;;;20.13;12.95;;;;;;;;;;6297860;28;20116;-76
2023/03/09 06:20:11;;;;;;;20.50;12.60;;;;;;;;;;6297550;28;20056;-76
2023/03/09 06:23:13;;;;;;;19.00;12.00;;;;;;;;;;6296153;28;20053;-75
2023/03/09 06:26:15;;;;;;;19.85;12.80;;;;;;;;;;6296343;28;20093;-75
2023/03/09 06:29:17;;;;;;;20.15;12.68;;;;;;;;;;6294806;28;20044;-75
2023/03/09 06:32:20;;;;;;;23.27;13.30;;;;;;;;;;6294364;28;20056;-75
2023/03/09 06:35:22;;;;;;;21.60;13.60;;;;;;;;;;6295071;28;20386;-73
2023/03/09 06:38:24;;;;;;;25.02;14.50;;;;;;;;;;6295616;28;20106;-75
2023/03/09 06:41:31;;;;;;;27.67;15.52;;;;;;;;;;6296417;28;20340;-75
2023/03/09 06:44:33;;;;;;;22.90;13.48;;;;;;;;;;6295267;28;20343;-75
2023/03/09 06:47:36;;;;;;;21.50;13.45;;;;;;;;;;6296552;28;20052;-76
2023/03/09 06:50:38;;;;;;;21.52;12.77;;;;;;;;;;6299313;28;20067;-75
2023/03/09 06:53:39;;;;;;;22.17;13.55;;;;;;;;;;6294431;28;20093;-76
2023/03/09 06:56:41;;;;;;;23.38;14.10;;;;;;;;;;6294224;28;20290;-76
2023/03/09 06:59:43;;;;;;;21.20;13.05;;;;;;;;;;6298697;28;20060;-75
2023/03/09 07:02:46;;;;;;;19.77;12.38;;;;;;;;;;6297156;28;20132;-76
2023/03/09 07:05:48;;;;;;;20.33;12.95;;;;;;;;;;6295650;28;20245;-75
2023/03/09 07:08:49;;;;;;;21.90;13.20;;;;;;;;;;6295172;28;20045;-74
2023/03/09 07:11:51;;;;;;;17.85;12.13;;;;;;;;;;6294869;28;20049;-76
2023/03/09 07:14:53;;;;;;;20.88;12.32;;;;;;;;;;6297019;28;20635;-75
2023/03/09 07:17:56;;;;;;;20.33;13.32;;;;;;;;;;6297293;28;20130;-75
2023/03/09 07:20:59;;;;;;;21.00;13.23;;;;;;;;;;6294325;28;20051;-75
2023/03/09 07:24:01;;;;;;;18.27;12.33;;;;;;;;;;6293802;28;20156;-75
2023/03/09 07:27:03;;;;;;;17.30;11.68;;;;;;;;;;6296955;28;20110;-76
2023/03/09 07:30:06;;;;;;;18.77;11.55;;;;;;;;;;6294607;28;20106;-75
2023/03/09 07:33:09;;;;;;;20.70;12.32;;;;;;;;;;6293956;28;20328;-75
2023/03/09 07:36:11;;;;;;;21.60;12.33;;;;;;;;;;6295873;28;20206;-71
2023/03/09 07:39:13;;;;;;;24.27;13.50;;;;;;;;;;6294341;28;20052;-76
2023/03/09 07:42:14;;;;;;;18.52;12.15;;;;;;;;;;6294844;28;20070;-75
2023/03/09 07:45:16;;;;;;;22.13;12.88;;;;;;;;;;6293833;28;20056;-75
2023/03/09 07:48:20;;;;;;;23.50;14.18;;;;;;;;;;6293564;28;22103;-75
2023/03/09 07:51:23;;;;;;;17.08;11.82;;;;;;;;;;6293601;28;20062;-74
2023/03/09 07:54:25;;;;;;;22.10;11.77;;;;;;;;;;6294689;28;20052;-76
2023/03/09 07:57:31;;;;;;;22.40;13.15;;;;;;;;;;6295156;28;20487;-75
2023/03/09 08:00:33;;;;;;;21.15;12.43;;;;;;;;;;6293894;28;20051;-75
2023/03/09 08:03:36;;;;;;;23.40;12.63;;;;;;;;;;6297000;28;20048;-74
2023/03/09 08:06:39;;;;;;;22.00;13.27;;;;;;;;;;6296151;28;20090;-75
2023/03/09 08:09:41;;;;;;;20.73;12.90;;;;;;;;;;6293562;28;20052;-71
2023/03/09 08:12:43;;;;;;;18.20;11.07;;;;;;;;;;6291785;28;20056;-76
2023/03/09 08:15:44;;;;;;;17.83;10.20;;;;;;;;;;6296228;28;20139;-77
2023/03/09 08:18:47;;;;;;;19.52;10.43;;;;;;;;;;6300958;28;20059;-77
2023/03/09 08:21:49;;;;;;;14.13;9.33;;;;;;;;;;6295757;28;20098;-80
2023/03/09 08:24:51;;;;;;;19.23;10.98;;;;;;;;;;6298554;28;20056;-74
2023/03/09 08:27:53;;;;;;;20.73;12.38;;;;;;;;;;6299341;28;20059;-80
2023/03/09 08:30:55;;;;;;;16.02;10.88;;;;;;;;;;6300294;28;20045;-80
2023/03/09 08:33:58;;;;;;;23.92;13.48;;;;;;;;;;6298854;28;20056;-83
2023/03/09 08:37:01;;;;;;;20.07;12.07;;;;;;;;;;6297056;28;20101;-77
2023/03/09 08:40:03;;;;;;;17.77;12.20;;;;;;;;;;6301541;28;20502;-79
2023/03/09 08:43:04;;;;;;;20.83;11.88;;;;;;;;;;6299294;28;20048;-80
2023/03/09 08:46:07;;;;;;;17.13;10.85;;;;;;;;;;6298341;28;20068;-79
2023/03/09 08:49:10;;;;;;;19.40;13.48;;;;;;;;;;6296547;28;20086;-78
2023/03/09 08:52:12;;;;;;;17.38;10.80;;;;;;;;;;6295062;28;20056;-79
2023/03/09 08:55:14;;;;;;;16.23;12.23;;;;;;;;;;6301936;28;20266;-77
2023/03/09 08:58:16;;;;;;;21.08;12.00;;;;;;;;;;6300234;28;20256;-74
2023/03/09 09:01:17;;;;;;;;;;;;;;;;;;6296887;28;20050;-70
2023/03/09 09:04:20;;;;;;;20.70;12.57;;;;;;;;;;6295374;28;20728;-71
2023/03/09 09:07:22;;;;;;;20.15;12.93;;;;;;;;;;6299038;28;20136;-72
2023/03/09 09:10:24;;;;;;;21.40;12.38;;;;;;;;;;6296837;28;20152;-73
2023/03/09 09:13:26;;;;;;;17.45;12.52;;;;;;;;;;6299132;28;20068;-73
2023/03/09 09:16:29;;;;;;;20.83;12.80;;;;;;;;;;6294008;28;20148;-72
2023/03/09 09:19:33;;;;;;;20.63;12.57;;;;;;;;;;6296220;28;20056;-72
2023/03/09 09:22:35;;;;;;;25.98;13.18;;;;;;;;;;6298045;28;20052;-72
2023/03/09 09:25:37;;;;;;;20.10;12.35;;;;;;;;;;6300495;28;20115;-72
2023/03/09 09:28:39;;;;;;;22.20;12.30;;;;;;;;;;6297062;28;20097;-72
2023/03/09 09:31:40;;;;;;;15.77;10.02;;;;;;;;;;6295005;28;20111;-73
2023/03/09 09:34:43;;;;;;;14.90;9.00;;;;;;;;;;6296931;28;20095;-67
2023/03/09 09:37:45;;;;;;;13.60;9.30;;;;;;;;;;6299565;28;20052;-72
2023/03/09 09:40:49;;;;;;;17.70;9.33;;;;;;;;;;6296391;28;20490;-69
2023/03/09 09:43:54;;;;;;;18.10;9.55;;;;;;;;;;6298334;28;20107;-72
2023/03/09 09:46:57;;;;;;;15.80;8.32;;;;;;;;;;6299713;28;20052;-71
2023/03/09 09:50:01;;;;;;;12.88;8.18;;;;;;;;;;6297410;28;20056;-73
2023/03/09 09:53:09;;;;;;;12.18;8.18;;;;;;;;;;6298053;28;20116;-71
2023/03/09 09:56:13;;;;;;;13.45;6.97;;;;;;;;;;6298029;28;20170;-69
2023/03/09 09:59:20;;;;;;;11.52;7.32;;;;;;;;;;6298462;28;20059;-71
2023/03/09 10:02:38;;;;;;;16.42;7.60;;;;;;;;;;6297488;28;20093;-72
2023/03/09 10:05:45;;;;;;;14.27;8.50;;;;;;;;;;6296315;28;20052;-72
2023/03/09 10:08:49;;;;;;;14.85;8.52;;;;;;;;;;6298966;28;20312;-72
2023/03/09 10:11:54;;;;;;;15.00;7.05;;;;;;;;;;6295929;28;20336;-72
2023/03/09 10:14:59;;;;;;;10.77;7.10;;;;;;;;;;6300697;28;20065;-72
2023/03/09 10:18:03;;;;;;;12.88;7.90;;;;;;;;;;6297764;28;20048;-72
2023/03/09 10:21:14;;;;;;;13.93;8.02;;;;;;;;;;6296316;28;20049;-71
2023/03/09 10:24:22;;;;;;;13.73;8.20;;;;;;;;;;6298624;28;20068;-71
2023/03/09 10:27:28;;;;;;;15.10;7.57;;;;;;;;;;6297443;28;20076;-71
2023/03/09 10:30:38;;;;;;;15.40;8.23;;;;;;;;;;6297719;28;20059;-66
2023/03/09 10:33:44;;;;;;;13.40;8.00;;;;;;;;;;6297083;28;20063;-71
2023/03/09 10:36:58;;;;;;;14.10;7.80;;;;;;;;;;6298024;28;20052;-71
2023/03/09 10:40:03;;;;;;;14.35;8.38;;;;;;;;;;6294734;28;20158;-67
2023/03/09 10:43:05;;;;;;;14.20;7.20;;;;;;;;;;6298689;28;20060;-71
2023/03/09 10:46:13;;;;;;;14.68;7.55;;;;;;;;;;6297973;28;20064;-68
2023/03/09 10:49:15;;;;;;;13.73;7.80;;;;;;;;;;6297240;28;20044;-66
2023/03/09 10:52:19;;;;;;;12.05;6.80;;;;;;;;;;6296587;28;20056;-71
2023/03/09 10:55:38;;;;;;;;;;;;;;;;;;6296397;28;20064;-70
2023/03/09 10:58:40;;;;;;;16.00;8.13;;;;;;;;;;6296820;28;19924;-70
2023/03/09 11:01:43;;;;;;;13.80;8.07;;;;;;;;;;6294435;28;20048;-69
2023/03/09 11:04:46;;;;;;;15.77;7.93;;;;;;;;;;6296518;28;20072;-71
2023/03/09 11:07:52;;;;;;;12.65;7.78;;;;;;;;;;6294558;28;20052;-70
2023/03/09 11:11:04;;;;;;;12.55;7.63;;;;;;;;;;6295716;28;20044;-69
2023/03/09 11:14:19;;;;;;;14.35;8.23;;;;;;;;;;6297911;28;20115;-65
2023/03/09 11:17:33;;;;;;;16.98;7.68;;;;;;;;;;6295065;28;20048;-70
2023/03/09 11:20:35;;;;;;;12.30;7.40;;;;;;;;;;6295727;28;20056;-70
2023/03/09 11:23:40;;;;;;;15.40;7.90;;;;;;;;;;6297648;28;20320;-71
2023/03/09 11:26:43;;;;;;;15.80;8.52;;;;;;;;;;6295687;28;20063;-69
2023/03/09 11:29:51;;;;;;;11.27;7.43;;;;;;;;;;6295093;28;20048;-71
2023/03/09 11:32:53;;;;;;;16.88;8.48;;;;;;;;;;6296314;28;20371;-70
2023/03/09 11:35:56;;;;;;;13.68;8.35;;;;;;;;;;6296120;28;20356;-67
2023/03/09 11:39:03;;;;;;;11.82;7.38;;;;;;;;;;6295555;28;20087;-70
2023/03/09 11:42:09;;;;;;;11.90;9.18;;;;;;;;;;6295334;28;20120;-70
2023/03/09 11:45:15;;;;;;;13.68;8.55;;;;;;;;;;6296910;28;20048;-70
2023/03/09 11:48:22;;;;;;;16.88;9.73;;;;;;;;;;6297033;28;20097;-71
2023/03/09 11:51:26;;;;;;;10.93;7.65;;;;;;;;;;6296506;28;20056;-70
2023/03/09 11:54:32;;;;;;;12.40;7.53;;;;;;;;;;6300160;28;20048;-70
2023/03/09 11:57:35;;;;;;;14.73;8.27;;;;;;;;;;6301674;28;20102;-68
2023/03/09 12:00:39;;;;;;;20.25;8.50;;;;;;;;;;6299530;28;20052;-70
2023/03/09 12:03:43;;;;;;;12.15;8.25;;;;;;;;;;6298304;28;20113;-71
2023/03/09 12:06:51;;;;;;;13.98;8.95;;;;;;;;;;6300398;28;20056;-70
2023/03/09 12:09:58;;;;;;;12.27;8.48;;;;;;;;;;6299576;28;20355;-70
2023/03/09 12:13:04;;;;;;;9.88;8.13;;;;;;;;;;6302392;28;20224;-70
2023/03/09 12:16:08;;;;;;;16.35;8.18;;;;;;;;;;6300018;28;20630;-71
2023/03/09 12:19:15;;;;;;;15.25;9.48;;;;;;;;;;6300811;28;20060;-72
2023/03/09 12:22:19;;;;;;;15.45;9.07;;;;;;;;;;6298893;28;20055;-70
2023/03/09 12:25:24;;;;;;;12.07;8.45;;;;;;;;;;6298925;28;20260;-69
2023/03/09 12:28:25;;;;;;;11.85;8.43;;;;;;;;;;6298470;28;20107;-69
2023/03/09 12:31:31;;;;;;;14.45;8.52;;;;;;;;;;6307146;28;20098;-71
2023/03/09 12:34:41;;;;;;;15.27;8.90;;;;;;;;;;6305526;28;20044;-70
2023/03/09 12:38:15;;;;;;;11.88;8.27;;;;;;;;;;6306600;28;20236;-72
2023/03/09 12:41:27;;;;;;;14.82;9.00;;;;;;;;;;6304707;28;20086;-76
2023/03/09 12:45:04;;;;;;;13.02;8.57;;;;;;;;;;6304271;28;20279;-75
2023/03/09 12:48:22;;;;;;;16.85;8.27;;;;;;;;;;6306600;28;20089;-74
2023/03/09 12:51:31;;;;;;;13.07;9.02;;;;;;;;;;6305296;28;20082;-73
2023/03/09 12:54:33;;;;;;;12.90;8.63;;;;;;;;;;6306817;28;20111;-74
2023/03/09 12:57:36;;;;;;;11.68;7.57;;;;;;;;;;6305327;28;20374;-73
2023/03/09 13:00:38;;;;;;;10.40;7.57;;;;;;;;;;6305845;28;20048;-74
2023/03/09 13:03:44;;;;;;;15.02;8.20;;;;;;;;;;6305857;28;20052;-69
2023/03/09 13:06:53;;;;;;;13.95;8.48;;;;;;;;;;6306020;28;20056;-72
2023/03/09 13:09:55;;;;;;;11.60;8.10;;;;;;;;;;6306444;28;20041;-74
2023/03/09 13:13:39;;;;;;;12.95;8.00;;;;;;;;;;6305416;28;20202;-72
2023/03/09 13:16:53;;;;;;;13.52;7.40;;;;;;;;;;6296761;28;20051;-71
2023/03/09 13:19:56;;;;;;;10.52;6.88;;;;;;;;;;6304238;28;20267;-71
2023/03/09 13:22:57;;;;;;;;;;;;;;;;;;6306657;28;20052;-73
2023/03/09 13:25:59;;;;;;;11.05;6.78;;;;;;;;;;6305623;28;19931;-73
2023/03/09 13:29:08;;;;;;;9.90;6.47;;;;;;;;;;6301786;28;20321;-67
2023/03/09 13:32:21;;;;;;;9.85;5.75;;;;;;;;;;6299707;28;20040;-73
2023/03/09 13:35:28;;;;;;;10.85;7.20;;;;;;;;;;6298849;28;20055;-67
2023/03/09 13:38:32;;;;;;;10.05;6.72;;;;;;;;;;6298857;28;20086;-74
2023/03/09 13:41:34;;;;;;;11.68;7.05;;;;;;;;;;6297961;28;20062;-70
2023/03/09 13:44:46;;;;;;;12.27;6.20;;;;;;;;;;6296377;28;20348;-73
2023/03/09 13:47:52;;;;;;;12.27;6.45;;;;;;;;;;6298728;28;20052;-73
2023/03/09 13:50:54;;;;;;;13.35;7.00;;;;;;;;;;6299359;28;20137;-74
2023/03/09 13:53:55;;;;;;;12.57;6.90;;;;;;;;;;6296826;28;20057;-73
2023/03/09 13:57:10;;;;;;;10.63;6.82;;;;;;;;;;6297063;28;20055;-71
2023/03/09 14:00:19;;;;;;;11.23;6.35;;;;;;;;;;6296961;28;20167;-74
2023/03/09 14:03:21;;;;;;;11.07;7.00;;;;;;;;;;6296102;28;20067;-71
2023/03/09 14:06:31;;;;;;;11.07;7.20;;;;;;;;;;6296050;28;20052;-72
2023/03/09 14:09:34;;;;;;;13.05;6.78;;;;;;;;;;6297640;28;20063;-74
2023/03/09 14:12:37;;;;;;;12.95;6.43;;;;;;;;;;6298348;28;20064;-73
2023/03/09 14:15:41;;;;;;;10.02;6.93;;;;;;;;;;6297631;28;20052;-68
2023/03/09 14:18:43;;;;;;;;;;;;;;;;;;6297916;28;20108;-74
2023/03/09 14:21:50;;;;;;;11.65;6.40;;;;;;;;;;6298003;28;19977;-74
2023/03/09 14:24:52;;;;;;;8.60;6.10;;;;;;;;;;6297690;28;20037;-66
2023/03/09 14:27:54;;;;;;;12.40;6.85;;;;;;;;;;6296776;28;20064;-73
2023/03/09 14:31:08;;;;;;;15.02;6.90;;;;;;;;;;6296775;28;20048;-72
2023/03/09 14:34:26;;;;;;;12.10;6.90;;;;;;;;;;6295255;28;20095;-71
2023/03/09 14:37:30;;;;;;;11.02;6.97;;;;;;;;;;6297084;28;20947;-74
2023/03/09 14:40:35;;;;;;;11.07;7.07;;;;;;;;;;6297670;28;20352;-73
2023/03/09 14:43:41;;;;;;;10.70;6.80;;;;;;;;;;6293989;28;20059;-74
2023/03/09 14:46:44;;;;;;;11.93;6.30;;;;;;;;;;6296516;28;20048;-72
2023/03/09 14:49:47;;;;;;;10.32;6.10;;;;;;;;;;6299873;28;20060;-68
2023/03/09 14:52:49;;;;;;;9.23;6.40;;;;;;;;;;6297063;28;20055;-73
2023/03/09 14:55:51;;;;;;;9.20;6.68;;;;;;;;;;6295799;28;20478;-76
2023/03/09 14:58:52;;;;;;;10.65;6.70;;;;;;;;;;6296706;28;20056;-70
2023/03/09 15:01:57;;;;;;;13.40;6.00;;;;;;;;;;6295049;28;20339;-73
2023/03/09 15:04:59;;;;;;;9.75;5.88;;;;;;;;;;6297456;28;20048;-71
2023/03/09 15:08:01;;;;;;;12.70;7.05;;;;;;;;;;6296459;28;20060;-71
2023/03/09 15:11:03;;;;;;;14.55;7.53;;;;;;;;;;6297526;28;20053;-73
2023/03/09 15:14:09;;;;;;;11.13;6.38;;;;;;;;;;6295282;28;20343;-73
2023/03/09 15:17:14;;;;;;;10.88;6.80;;;;;;;;;;6295309;28;20052;-74
2023/03/09 15:20:19;;;;;;;14.70;6.47;;;;;;;;;;6294613;28;20063;-74
2023/03/09 15:23:21;;;;;;;10.32;5.97;;;;;;;;;;6297009;28;20057;-74
2023/03/09 15:26:22;;;;;;;12.10;6.30;;;;;;;;;;6296981;28;20056;-73
2023/03/09 15:29:24;;;;;;;13.55;6.75;;;;;;;;;;6298584;28;20079;-68
2023/03/09 15:32:27;;;;;;;9.25;6.10;;;;;;;;;;6297493;28;20056;-70
2023/03/09 15:35:29;;;;;;;9.52;6.68;;;;;;;;;;6299728;28;20044;-72
2023/03/09 15:38:31;;;;;;;13.10;7.38;;;;;;;;;;6300265;28;20205;-72
2023/03/09 15:41:33;;;;;;;13.10;7.70;;;;;;;;;;6299729;28;20192;-71
2023/03/09 15:44:34;;;;;;;13.40;6.70;;;;;;;;;;6300234;28;20093;-71
2023/03/09 15:47:37;;;;;;;11.13;6.93;;;;;;;;;;6300961;28;20082;-72
2023/03/09 15:50:39;;;;;;;12.15;7.00;;;;;;;;;;6297830;28;20044;-74
2023/03/09 15:53:41;;;;;;;12.45;6.20;;;;;;;;;;6297330;28;20048;-73
2023/03/09 15:56:43;;;;;;;11.50;6.80;;;;;;;;;;6299791;28;20229;-71
2023/03/09 15:59:44;;;;;;;10.27;6.43;;;;;;;;;;6300763;28;20063;-75
2023/03/09 16:02:47;;;;;;;12.93;6.65;;;;;;;;;;6299982;28;20575;-76
2023/03/09 16:05:49;;;;;;;14.68;7.63;;;;;;;;;;6298406;28;20358;-74
2023/03/09 16:08:51;;;;;;;17.27;7.30;;;;;;;;;;6298049;28;20059;-69
2023/03/09 16:11:53;;;;;;;13.75;8.43;;;;;;;;;;6299030;28;20069;-72
2023/03/09 16:14:54;;;;;;;13.52;8.52;;;;;;;;;;6301107;28;20049;-76
2023/03/09 16:17:57;;;;;;;16.77;8.13;;;;;;;;;;6299134;28;20045;-73
2023/03/09 16:20:59;;;;;;;;;;;;;;;;;;6299324;28;20068;-70
2023/03/09 16:24:01;;;;;;;12.23;8.00;;;;;;;;;;6300825;28;19931;-73
2023/03/09 16:27:02;;;;;;;12.65;8.13;;;;;;;;;;6299156;28;20348;-72
2023/03/09 16:30:05;;;;;;;12.98;8.52;;;;;;;;;;6299208;28;20052;-73
2023/03/09 16:33:09;;;;;;;12.48;7.97;;;;;;;;;;6297943;28;20060;-71
2023/03/09 16:36:11;;;;;;;14.95;8.40;;;;;;;;;;6300534;28;20145;-69
2023/03/09 16:39:12;;;;;;;15.77;8.05;;;;;;;;;;6297719;28;20037;-72
2023/03/09 16:42:14;;;;;;;15.88;7.28;;;;;;;;;;6299328;28;20053;-73
2023/03/09 16:45:17;;;;;;;12.50;8.07;;;;;;;;;;6296912;28;20049;-72
2023/03/09 16:48:25;;;;;;;12.82;7.53;;;;;;;;;;6298484;28;20320;-73
2023/03/09 16:51:27;;;;;;;15.23;8.35;;;;;;;;;;6301440;28;20103;-73
2023/03/09 16:54:29;;;;;;;16.52;7.35;;;;;;;;;;6299436;28;20053;-69
2023/03/09 16:57:31;;;;;;;13.00;7.47;;;;;;;;;;6298864;28;20049;-70
2023/03/09 17:00:32;;;;;;;15.02;8.32;;;;;;;;;;6294944;28;20067;-73
2023/03/09 17:03:36;;;;;;;26.73;9.05;;;;;;;;;;6299275;28;20346;-73
2023/03/09 17:06:38;;;;;;;15.55;8.10;;;;;;;;;;6298541;28;20056;-73
2023/03/09 17:09:40;;;;;;;16.45;8.43;;;;;;;;;;6299333;28;20252;-73
2023/03/09 17:12:42;;;;;;;13.38;7.80;;;;;;;;;;6297591;28;20048;-73
2023/03/09 17:15:43;;;;;;;13.90;7.65;;;;;;;;;;6300623;28;20068;-73
2023/03/09 17:18:47;;;;;;;13.65;7.60;;;;;;;;;;6300422;28;20356;-74
2023/03/09 17:21:49;;;;;;;17.85;7.63;;;;;;;;;;6298011;28;20052;-73
2023/03/09 17:24:52;;;;;;;14.35;7.57;;;;;;;;;;6299366;28;20117;-65
2023/03/09 17:27:54;;;;;;;14.43;7.30;;;;;;;;;;6299640;28;20281;-73
2023/03/09 17:30:55;;;;;;;18.58;9.38;;;;;;;;;;6299501;28;20052;-72
2023/03/09 17:33:59;;;;;;;16.08;8.13;;;;;;;;;;6297144;28;20048;-73
2023/03/09 17:37:01;;;;;;;14.10;7.80;;;;;;;;;;6300119;28;20343;-72
2023/03/09 17:40:03;;;;;;;14.93;9.13;;;;;;;;;;6297589;28;20123;-71
2023/03/09 17:43:05;;;;;;;13.25;8.02;;;;;;;;;;6298545;28;20052;-70
2023/03/09 17:46:09;;;;;;;13.00;7.88;;;;;;;;;;6300539;28;20063;-71
2023/03/09 17:49:12;;;;;;;16.60;8.32;;;;;;;;;;6298865;28;20102;-71
2023/03/09 17:52:14;;;;;;;16.65;7.82;;;;;;;;;;6297397;28;20060;-73
2023/03/09 17:55:16;;;;;;;18.00;7.80;;;;;;;;;;6298971;28;20071;-74
2023/03/09 17:58:17;;;;;;;15.90;8.55;;;;;;;;;;6297434;28;20063;-66
2023/03/09 18:01:21;;;;;;;11.50;7.07;;;;;;;;;;6298848;28;20064;-73
2023/03/09 18:04:24;;;;;;;13.80;6.95;;;;;;;;;;6298246;28;20059;-70